Time;durP1;ratioP1;P1;durP2;ratioP2;P2;SDS_P1;SDS_P2;PMS_P1;PMS_P2;Temp;Humidity;BMP_temperature;BMP_pressure;BME280_temperature;BME280_humidity;BME280_pressure;Samples;Min_cycle;Max_cycle;Signal;HPM_P1;HPM_P2
2021/08/15 00:01:21;;;;;;;10.52;9.27;;;;;;;26.66;65.40;95738.34;5001655;28;20222;-89
2021/08/15 00:03:49;;;;;;;11.13;8.55;;;;;;;26.60;65.58;95738.63;5007378;28;20222;-88
2021/08/15 00:06:16;;;;;;;10.63;9.57;;;;;;;26.47;66.10;95732.91;5011949;28;20732;-87
2021/08/15 00:08:44;;;;;;;10.73;9.68;;;;;;;26.30;66.38;95736.97;4995284;28;20203;-88
2021/08/15 00:11:10;;;;;;;10.80;9.02;;;;;;;26.18;67.22;95726.66;5002826;28;20214;-88
2021/08/15 00:13:37;;;;;;;9.80;8.80;;;;;;;26.25;66.66;95732.44;5014779;28;20218;-89
2021/08/15 00:16:03;;;;;;;10.70;9.18;;;;;;;26.26;66.80;95734.03;5015266;28;20207;-86
2021/08/15 00:18:30;;;;;;;10.38;9.23;;;;;;;26.23;66.93;95731.94;5014731;28;20206;-89
2021/08/15 00:20:57;;;;;;;11.45;8.73;;;;;;;26.25;66.56;95721.91;5014722;28;20223;-89
2021/08/15 00:23:23;;;;;;;11.02;8.98;;;;;;;26.15;67.63;95728.03;5015976;28;20207;-88
2021/08/15 00:25:51;;;;;;;11.48;9.38;;;;;;;26.15;67.20;95732.50;5017856;28;20671;-87
2021/08/15 00:28:20;;;;;;;10.10;9.10;;;;;;;26.09;67.68;95726.47;5017879;28;20213;-88
2021/08/15 00:30:47;;;;;;;10.30;9.35;;;;;;;26.17;67.23;95732.25;5017879;28;20239;-88
2021/08/15 00:33:13;;;;;;;10.93;9.20;;;;;;;26.17;67.21;95732.25;5017094;28;20218;-87
2021/08/15 00:35:40;;;;;;;10.90;9.80;;;;;;;26.19;66.85;95727.47;5018052;28;20230;-87
2021/08/15 00:38:06;;;;;;;14.05;9.82;;;;;;;26.09;67.63;95733.59;5016977;28;20210;-88
2021/08/15 00:40:33;;;;;;;10.75;9.65;;;;;;;26.05;67.97;95721.97;5015993;28;20227;-87
2021/08/15 00:43:00;;;;;;;13.02;10.10;;;;;;;26.05;68.14;95722.78;5008388;28;20191;-87
2021/08/15 00:45:29;;;;;;;11.20;10.02;;;;;;;26.09;67.71;95723.81;4997753;28;20199;-87
2021/08/15 00:48:06;;;;;;;12.38;10.45;;;;;;;26.10;67.72;95720.13;4996885;28;20207;-88
2021/08/15 00:50:33;;;;;;;9.90;9.00;;;;;;;26.05;67.78;95717.50;4997143;28;20223;-88
2021/08/15 00:53:02;;;;;;;10.60;9.57;;;;;;;25.98;67.98;95711.72;4998048;28;20246;-87
2021/08/15 00:55:32;;;;;;;12.35;9.90;;;;;;;25.91;68.49;95713.88;4997053;28;20711;-89
2021/08/15 00:57:59;;;;;;;10.23;9.23;;;;;;;25.87;69.14;95715.47;4997527;28;20204;-88
2021/08/15 01:00:27;;;;;;;11.02;9.93;;;;;;;25.91;68.65;95718.34;4998262;28;20210;-88
2021/08/15 01:02:53;;;;;;;12.73;10.18;;;;;;;25.84;68.63;95716.00;5017305;28;20270;-87
2021/08/15 01:05:20;;;;;;;11.45;10.32;;;;;;;25.83;69.03;95713.63;5015293;28;20521;-87
2021/08/15 01:07:49;;;;;;;11.27;10.18;;;;;;;25.78;69.63;95711.81;5016353;28;20230;-88
2021/08/15 01:10:17;;;;;;;11.30;10.13;;;;;;;25.71;69.32;95714.72;5016788;28;20210;-87
2021/08/15 01:12:43;;;;;;;12.32;10.77;;;;;;;25.66;69.09;95709.47;5017147;28;20207;-87
2021/08/15 01:15:11;;;;;;;11.48;9.93;;;;;;;25.61;69.54;95706.00;5017515;28;20249;-87
2021/08/15 01:17:40;;;;;;;13.23;10.25;;;;;;;25.72;69.26;95704.97;5017210;28;20203;-88
2021/08/15 01:20:08;;;;;;;12.02;10.30;;;;;;;25.74;68.94;95706.28;5019232;28;20290;-90
2021/08/15 01:22:36;;;;;;;11.52;10.43;;;;;;;25.68;69.87;95698.63;5016072;28;20226;-88
2021/08/15 01:25:05;;;;;;;12.55;11.35;;;;;;;25.65;69.36;95699.16;5015318;28;20199;-87
2021/08/15 01:27:37;;;;;;;12.45;11.00;;;;;;;25.59;70.24;95701.03;5015643;28;20786;-87
2021/08/15 01:30:10;;;;;;;11.63;10.52;;;;;;;25.47;70.68;95698.66;5016378;28;20229;-86
2021/08/15 01:32:38;;;;;;;13.60;10.35;;;;;;;25.43;71.29;95702.09;5015591;28;20222;-88
2021/08/15 01:35:06;;;;;;;11.30;10.10;;;;;;;25.41;71.72;95699.72;5015535;28;20222;-88
2021/08/15 01:37:34;;;;;;;11.63;10.52;;;;;;;25.43;71.21;95700.25;5016431;28;20211;-88
2021/08/15 01:40:02;;;;;;;11.07;10.07;;;;;;;25.39;72.12;95695.81;5015534;28;20678;-88
2021/08/15 01:42:29;;;;;;;11.13;9.90;;;;;;;25.43;71.42;95691.53;5015990;28;20230;-89
2021/08/15 01:44:56;;;;;;;12.95;10.77;;;;;;;25.41;71.89;95691.81;5016238;28;20207;-90
2021/08/15 01:47:24;;;;;;;11.30;10.20;;;;;;;25.47;71.41;95692.59;5015595;28;20203;-87
2021/08/15 01:49:51;;;;;;;11.38;9.73;;;;;;;25.44;71.75;95688.66;5015348;28;20202;-88
2021/08/15 01:52:17;;;;;;;13.65;9.73;;;;;;;25.45;71.26;95687.59;5015598;28;20219;-86
2021/08/15 01:54:43;;;;;;;11.27;10.10;;;;;;;25.36;72.13;95688.41;5014982;28;20219;-87
2021/08/15 01:57:12;;;;;;;13.02;9.95;;;;;;;25.37;71.74;95692.63;5015163;28;20213;-87
2021/08/15 01:59:39;;;;;;;11.13;9.88;;;;;;;25.43;71.80;95686.28;5017100;28;20199;-89
2021/08/15 02:02:05;;;;;;;13.10;9.93;;;;;;;25.52;70.85;95689.97;5016190;28;20250;-86
2021/08/15 02:04:33;;;;;;;10.93;9.80;;;;;;;25.58;70.98;95686.25;5015437;28;20207;-87
2021/08/15 02:07:02;;;;;;;10.45;9.30;;;;;;;25.54;70.74;95690.47;5013765;28;20226;-88
2021/08/15 02:09:29;;;;;;;11.25;10.07;;;;;;;25.50;70.64;95691.28;5006265;28;20214;-87
2021/08/15 02:11:55;;;;;;;14.75;9.95;;;;;;;25.54;70.68;95687.06;5013977;28;20244;-88
2021/08/15 02:14:21;;;;;;;10.57;9.57;;;;;;;25.59;70.49;95697.59;4995627;28;20242;-88
2021/08/15 02:16:48;;;;;;;11.95;9.77;;;;;;;25.57;70.36;95697.06;5002362;28;20210;-87
2021/08/15 02:19:14;;;;;;;10.63;9.63;;;;;;;25.58;70.00;95693.38;5016182;28;20207;-88
2021/08/15 02:21:42;;;;;;;10.75;9.63;;;;;;;25.48;70.90;95694.19;5016122;28;20606;-87
2021/08/15 02:24:09;;;;;;;11.02;9.93;;;;;;;25.31;71.87;95697.13;5015999;28;20198;-89
2021/08/15 02:26:35;;;;;;;10.80;9.70;;;;;;;25.26;71.81;95701.59;5014959;28;20199;-87
2021/08/15 02:29:02;;;;;;;12.35;10.20;;;;;;;25.29;71.28;95695.81;5015074;28;20198;-87
2021/08/15 02:31:28;;;;;;;13.02;9.95;;;;;;;25.34;70.93;95701.06;5014293;28;20226;-88
2021/08/15 02:33:55;;;;;;;11.80;10.60;;;;;;;25.15;72.43;95697.41;5013830;28;20206;-88
2021/08/15 02:36:21;;;;;;;11.80;9.82;;;;;;;25.13;71.57;95695.03;5014558;28;20229;-89
2021/08/15 02:38:49;;;;;;;11.25;10.00;;;;;;;25.17;71.81;95696.09;5014500;28;20207;-87
2021/08/15 02:41:15;;;;;;;11.18;10.02;;;;;;;25.08;72.62;95693.19;5014381;28;20717;-89
2021/08/15 02:43:42;;;;;;;11.88;9.90;;;;;;;25.17;71.92;95695.31;5014754;28;20199;-88
2021/08/15 02:46:08;;;;;;;12.25;10.15;;;;;;;25.16;72.22;95702.41;5014296;28;20194;-86
2021/08/15 02:48:36;;;;;;;11.40;10.30;;;;;;;25.04;72.85;95692.13;5014547;28;20229;-88
2021/08/15 02:51:03;;;;;;;11.93;9.95;;;;;;;24.90;73.73;95692.91;5014229;28;20233;-87
2021/08/15 02:53:29;;;;;;;11.40;9.70;;;;;;;24.88;73.17;95687.09;5013991;28;20233;-89
2021/08/15 02:55:57;;;;;;;11.93;10.73;;;;;;;24.85;73.89;95688.41;5014032;28;20624;-88
2021/08/15 02:58:23;;;;;;;14.23;10.20;;;;;;;24.77;74.11;95689.75;5014572;28;20214;-88
2021/08/15 03:00:52;;;;;;;10.63;9.63;;;;;;;24.68;74.68;95686.03;5014421;28;20214;-88
2021/08/15 03:03:18;;;;;;;11.38;10.27;;;;;;;24.66;75.20;95692.63;5014852;28;20198;-87
2021/08/15 03:05:45;;;;;;;11.02;10.02;;;;;;;24.76;74.40;95680.28;5015232;28;20230;-88
2021/08/15 03:08:11;;;;;;;11.65;10.50;;;;;;;24.79;74.65;95684.22;5014441;28;20206;-88
2021/08/15 03:10:37;;;;;;;12.15;10.30;;;;;;;24.80;74.78;95680.53;5014614;28;20765;-88
2021/08/15 03:13:06;;;;;;;11.45;10.30;;;;;;;24.81;74.32;95683.97;5014354;28;20210;-89
2021/08/15 03:15:38;;;;;;;11.52;10.43;;;;;;;24.76;74.73;95674.22;5014568;28;20226;-87
2021/08/15 03:18:13;;;;;;;13.15;10.43;;;;;;;24.81;74.35;95673.44;5014476;28;20302;-89
2021/08/15 03:20:39;;;;;;;12.18;10.13;;;;;;;24.82;74.20;95672.38;5014670;28;20793;-87
2021/08/15 03:23:06;;;;;;;13.75;10.30;;;;;;;24.80;74.08;95672.63;5015049;28;20579;-89
2021/08/15 03:25:32;;;;;;;11.10;9.95;;;;;;;24.83;73.69;95668.66;5014084;28;20226;-86
2021/08/15 03:27:59;;;;;;;11.77;10.57;;;;;;;24.77;74.23;95675.78;5013589;28;20566;-89
2021/08/15 03:30:28;;;;;;;16.27;9.98;;;;;;;24.77;73.86;95673.94;5013058;28;20199;-85
2021/08/15 03:32:54;;;;;;;11.57;10.38;;;;;;;24.76;73.77;95675.00;5013139;28;20238;-84
2021/08/15 03:35:25;;;;;;;11.18;9.98;;;;;;;24.65;75.00;95662.06;5012633;28;20233;-85
2021/08/15 03:37:51;;;;;;;11.35;10.10;;;;;;;24.62;74.64;95673.16;5013022;28;20203;-86
2021/08/15 03:40:18;;;;;;;12.23;10.27;;;;;;;24.63;74.50;95667.59;5013346;28;20214;-86
2021/08/15 03:42:45;;;;;;;13.45;9.70;;;;;;;24.70;75.26;95660.25;5013713;28;20678;-84
2021/08/15 03:45:11;;;;;;;10.98;9.93;;;;;;;24.77;74.50;95668.69;5013523;28;20210;-86
2021/08/15 03:47:39;;;;;;;11.15;10.05;;;;;;;24.81;74.25;95658.41;5013113;28;20666;-83
2021/08/15 03:50:07;;;;;;;12.10;10.13;;;;;;;24.85;73.98;95662.09;5001651;28;20199;-83
2021/08/15 03:52:40;;;;;;;11.40;9.88;;;;;;;24.85;74.04;95663.91;5012235;28;20760;-88
2021/08/15 03:55:10;;;;;;;13.27;10.32;;;;;;;24.85;73.70;95669.97;5011946;28;20246;-84
2021/08/15 03:57:37;;;;;;;12.50;9.75;;;;;;;24.83;73.96;95669.44;5015608;28;20202;-84
2021/08/15 04:00:04;;;;;;;10.95;9.88;;;;;;;24.77;74.64;95671.31;5016311;28;20234;-85
2021/08/15 04:02:31;;;;;;;11.65;9.93;;;;;;;24.71;74.73;95675.00;5014352;28;20280;-85
2021/08/15 04:04:59;;;;;;;11.60;9.50;;;;;;;24.75;74.09;95676.06;5013635;28;20211;-85
2021/08/15 04:07:25;;;;;;;10.75;9.35;;;;;;;24.79;74.16;95679.75;5011768;28;20229;-86
2021/08/15 04:09:52;;;;;;;11.88;9.65;;;;;;;24.83;73.42;95682.63;5010688;28;20682;-86
2021/08/15 04:12:18;;;;;;;14.07;9.80;;;;;;;24.78;73.92;95674.75;5010400;28;20223;-86
2021/08/15 04:14:45;;;;;;;13.25;9.85;;;;;;;24.82;73.42;95677.66;5003383;28;20210;-87
2021/08/15 04:17:11;;;;;;;12.63;10.05;;;;;;;24.86;73.78;95668.94;5012066;28;20205;-86
2021/08/15 04:19:38;;;;;;;13.27;9.18;;;;;;;24.85;73.23;95674.47;5011735;28;20206;-86
2021/08/15 04:22:06;;;;;;;10.60;9.50;;;;;;;24.86;73.14;95671.56;5011826;28;20230;-86
2021/08/15 04:24:32;;;;;;;11.15;9.73;;;;;;;24.84;73.48;95675.50;5011833;28;20705;-86
2021/08/15 04:26:58;;;;;;;12.07;9.30;;;;;;;24.81;73.30;95676.06;5012267;28;20555;-86
2021/08/15 04:29:25;;;;;;;11.80;9.20;;;;;;;24.78;73.21;95674.75;5012256;28;20569;-86
2021/08/15 04:31:52;;;;;;;11.65;9.70;;;;;;;24.76;73.05;95677.63;5012198;28;20757;-85
2021/08/15 04:34:20;;;;;;;15.75;9.82;;;;;;;24.77;73.25;95673.94;5011680;28;20199;-87
2021/08/15 04:36:51;;;;;;;10.65;9.63;;;;;;;24.73;73.48;95667.63;5011927;28;20218;-86
2021/08/15 04:39:19;;;;;;;10.40;9.30;;;;;;;24.69;73.77;95669.19;5011854;28;20683;-87
2021/08/15 04:41:46;;;;;;;13.13;9.30;;;;;;;24.70;73.76;95662.88;5011839;28;20272;-86
2021/08/15 04:44:13;;;;;;;11.43;10.10;;;;;;;24.61;74.34;95661.84;5008008;28;20245;-86
2021/08/15 04:46:39;;;;;;;10.50;9.50;;;;;;;24.63;74.27;95664.22;5011117;28;20205;-86
2021/08/15 04:49:10;;;;;;;10.52;9.23;;;;;;;24.70;74.24;95667.34;5011599;28;20206;-85
2021/08/15 04:51:37;;;;;;;10.48;9.38;;;;;;;24.75;73.72;95665.53;5011509;28;20219;-86
2021/08/15 04:54:03;;;;;;;11.32;9.57;;;;;;;24.84;73.28;95670.25;5011329;28;20214;-86
2021/08/15 04:56:31;;;;;;;13.40;9.82;;;;;;;24.88;73.29;95666.81;5010968;28;20230;-85
2021/08/15 04:58:57;;;;;;;10.52;8.93;;;;;;;24.92;73.09;95667.88;5011312;28;20203;-86
2021/08/15 05:01:24;;;;;;;10.82;9.82;;;;;;;24.96;72.84;95663.69;5011079;28;20227;-86
2021/08/15 05:04:06;;;;;;;10.15;9.18;;;;;;;25.00;72.78;95663.97;5014047;28;20209;-85
2021/08/15 05:06:58;;;;;;;15.45;9.93;;;;;;;25.08;72.69;95673.94;5012499;28;20261;-84
2021/08/15 05:09:25;;;;;;;11.50;9.00;;;;;;;25.12;72.49;95675.00;5011680;28;20226;-86
2021/08/15 05:12:49;;;;;;;;;;;;;;;;;;;;;
2021/08/15 05:18:41;;;;;;;10.30;8.85;;;;;;;25.14;72.62;95680.81;4931939;29;20223;-86
2021/08/15 05:21:19;;;;;;;11.98;8.60;;;;;;;25.17;72.53;95679.50;5008678;28;20250;-87
2021/08/15 05:23:49;;;;;;;11.18;8.85;;;;;;;25.23;72.45;95681.84;5010358;28;20229;-86
2021/08/15 05:26:45;;;;;;;12.48;9.73;;;;;;;25.20;72.59;95674.47;5010824;28;20202;-88
2021/08/15 05:29:18;;;;;;;11.13;8.70;;;;;;;25.18;72.36;95684.50;5011150;28;20203;-89
2021/08/15 05:33:17;;;;;;;;;;;;;;;;;;;;;
2021/08/15 05:38:40;;;;;;;11.90;9.32;;;;;;;25.22;72.41;95680.25;4917029;29;20636;-87
2021/08/15 05:41:14;;;;;;;12.30;9.23;;;;;;;25.23;72.39;95681.03;4987201;28;20228;-87
2021/08/15 05:44:11;;;;;;;10.68;8.63;;;;;;;25.22;72.62;95688.16;4993128;28;20855;-88
2021/08/15 05:49:57;;;;;;;11.63;9.10;;;;;;;25.15;73.36;95686.88;4990292;28;20642;-87
2021/08/15 05:52:29;;;;;;;11.15;9.43;;;;;;;25.16;73.69;95686.59;5007222;28;20239;-84
2021/08/15 05:54:55;;;;;;;11.95;9.80;;;;;;;25.19;73.84;95690.56;5011725;28;20203;-84
2021/08/15 05:57:24;;;;;;;13.40;10.05;;;;;;;25.32;73.01;95690.78;5003014;28;20223;-88
2021/08/15 05:59:56;;;;;;;16.75;10.65;;;;;;;25.38;72.57;95686.31;4996350;28;20202;-89
2021/08/15 06:16:21;;;;;;;12.45;10.77;;;;;;;25.76;70.25;95692.81;4957867;28;20260;-88
2021/08/15 06:25:33;;;;;;;;;;;;;;;;;;;;;
2021/08/15 06:30:59;;;;;;;15.95;12.38;;;;;;;25.93;69.07;95695.91;4894026;29;20730;-88
2021/08/15 06:39:16;;;;;;;12.98;10.63;;;;;;;26.21;68.06;95697.09;4995734;28;20234;-89
2021/08/15 06:41:58;;;;;;;14.85;11.18;;;;;;;26.32;67.45;95697.88;4993350;28;20242;-88
2021/08/15 06:44:48;;;;;;;12.32;11.00;;;;;;;26.39;66.23;95696.50;5004836;28;20237;-88
2021/08/15 06:47:17;;;;;;;14.20;11.77;;;;;;;26.45;66.22;95690.13;4999657;28;20264;-88
2021/08/15 06:49:46;;;;;;;16.60;12.55;;;;;;;26.46;66.21;95690.91;5010195;28;20206;-89
2021/08/15 06:52:13;;;;;;;15.70;12.07;;;;;;;26.44;65.76;95685.91;4990993;28;20228;-89
2021/08/15 06:54:43;;;;;;;12.93;11.48;;;;;;;26.40;66.30;95697.28;4994479;28;20666;-89
2021/08/15 06:57:11;;;;;;;17.00;12.25;;;;;;;26.40;65.90;95692.78;5009310;28;20288;-89
2021/08/15 06:59:38;;;;;;;15.27;12.43;;;;;;;26.40;65.88;95684.88;5007992;28;20198;-88
2021/08/15 07:02:10;;;;;;;18.95;11.40;;;;;;;26.48;65.90;95680.88;5002787;28;20215;-88
2021/08/15 07:04:37;;;;;;;14.38;12.88;;;;;;;26.55;65.16;95680.56;4999575;28;20211;-89
2021/08/15 07:07:03;;;;;;;14.15;12.05;;;;;;;26.64;64.69;95689.47;4988933;28;20652;-86
2021/08/15 07:09:30;;;;;;;14.25;11.23;;;;;;;26.70;64.83;95686.53;5004252;28;20199;-86
2021/08/15 07:11:56;;;;;;;19.08;11.45;;;;;;;26.79;64.38;95684.06;5009658;28;20225;-89
2021/08/15 07:14:25;;;;;;;14.25;11.43;;;;;;;26.91;64.40;95687.16;5009159;28;20681;-84
2021/08/15 07:16:51;;;;;;;14.68;12.00;;;;;;;26.94;65.03;95678.69;5009228;28;20242;-86
2021/08/15 07:19:18;;;;;;;12.45;11.15;;;;;;;26.77;64.89;95684.34;5009375;28;20198;-87
2021/08/15 07:21:46;;;;;;;19.83;11.20;;;;;;;26.83;65.12;95680.59;5009131;28;20222;-86
2021/08/15 07:24:12;;;;;;;12.73;10.40;;;;;;;27.01;64.90;95681.00;5008931;28;20207;-86
2021/08/15 07:26:39;;;;;;;14.02;11.30;;;;;;;27.16;63.90;95672.94;5009318;28;20236;-85
2021/08/15 07:29:05;;;;;;;13.70;11.93;;;;;;;27.11;64.24;95681.72;5009167;28;20206;-88
2021/08/15 07:31:41;;;;;;;13.73;11.02;;;;;;;27.17;64.47;95677.97;5008302;28;20235;-86
2021/08/15 07:34:07;;;;;;;15.68;10.77;;;;;;;27.35;64.12;95675.66;5008708;28;20557;-86
2021/08/15 07:36:34;;;;;;;12.73;11.43;;;;;;;27.48;63.09;95680.31;5008469;28;20714;-86
2021/08/15 07:39:01;;;;;;;15.98;11.07;;;;;;;27.56;62.13;95684.97;5009081;28;20285;-86
2021/08/15 07:41:27;;;;;;;12.20;10.35;;;;;;;27.61;61.67;95679.66;5008844;28;20827;-86
2021/08/15 07:43:56;;;;;;;13.43;10.75;;;;;;;27.61;60.83;95679.66;5008521;28;20319;-86
2021/08/15 07:46:29;;;;;;;21.17;19.10;;;;;;;27.46;60.60;95666.56;5009081;28;20199;-86
2021/08/15 07:49:00;;;;;;;25.02;22.52;;;;;;;27.41;60.96;95666.63;5008424;28;20293;-86
2021/08/15 07:51:35;;;;;;;14.00;12.10;;;;;;;27.48;59.40;95659.16;5008762;28;20222;-86
2021/08/15 07:54:02;;;;;;;14.07;10.98;;;;;;;27.58;59.96;95668.84;5008251;28;20255;-86
2021/08/15 07:56:29;;;;;;;14.02;10.60;;;;;;;27.74;59.18;95676.31;5008420;28;20253;-89
2021/08/15 07:59:02;;;;;;;11.32;10.15;;;;;;;28.01;58.07;95677.59;5009046;28;20206;-86
2021/08/15 08:01:30;;;;;;;11.32;10.20;;;;;;;28.24;57.50;95678.66;5008250;28;20226;-88
2021/08/15 08:04:01;;;;;;;10.40;9.10;;;;;;;28.39;57.01;95676.59;5008389;28;20199;-86
2021/08/15 08:06:28;;;;;;;11.35;9.65;;;;;;;28.31;56.93;95669.28;4997991;28;20227;-87
2021/08/15 08:08:55;;;;;;;12.20;11.00;;;;;;;28.30;56.08;95670.34;5008666;28;20205;-86
2021/08/15 08:11:22;;;;;;;10.93;9.90;;;;;;;28.34;56.62;95662.63;5008141;28;20250;-88
2021/08/15 08:13:50;;;;;;;13.30;10.48;;;;;;;28.40;56.02;95664.13;5007879;28;20211;-88
2021/08/15 08:16:20;;;;;;;12.40;9.80;;;;;;;28.56;56.63;95657.53;5004266;28;20254;-90
2021/08/15 08:18:49;;;;;;;10.10;9.20;;;;;;;28.76;55.14;95662.50;4990006;28;20207;-91
2021/08/15 08:24:56;;;;;;;10.02;9.07;;;;;;;29.05;53.09;95650.94;4915455;28;20692;-91
2021/08/15 08:33:23;;;;;;;9.82;8.77;;;;;;;29.23;50.56;95642.13;5025300;23;20235;-86
2021/08/15 08:36:41;;;;;;;10.75;8.43;;;;;;;29.39;51.44;95638.16;4983907;28;20298;-90
2021/08/15 09:26:12;;;;;;;11.35;7.85;;;;;;;31.36;47.23;95594.88;4834669;29;20213;-88
2021/08/15 09:28:39;;;;;;;13.27;8.63;;;;;;;31.48;46.68;95595.06;4847792;29;20232;-87
2021/08/15 09:31:24;;;;;;;11.82;9.27;;;;;;;31.51;46.77;95589.13;4966307;28;20223;-87
2021/08/15 09:33:52;;;;;;;10.98;8.57;;;;;;;31.54;45.66;95585.84;4990773;28;20291;-87
2021/08/15 09:36:33;;;;;;;10.77;8.75;;;;;;;31.31;46.27;95578.25;4991249;28;20210;-86
2021/08/15 09:39:04;;;;;;;13.60;8.38;;;;;;;31.64;46.49;95581.31;4991097;28;20269;-86
2021/08/15 09:41:33;;;;;;;11.25;8.43;;;;;;;31.69;45.29;95578.56;4995708;28;20219;-85
2021/08/15 09:44:18;;;;;;;9.60;7.97;;;;;;;31.85;45.67;95583.13;5011600;28;20202;-87
2021/08/15 09:47:06;;;;;;;10.77;8.85;;;;;;;31.95;45.13;95579.34;5009650;28;20249;-85
2021/08/15 09:49:35;;;;;;;10.65;8.77;;;;;;;32.14;45.04;95587.81;5011318;28;20202;-86
2021/08/15 09:52:02;;;;;;;13.48;8.75;;;;;;;32.29;44.53;95577.84;5017610;28;20218;-86
2021/08/15 09:54:31;;;;;;;10.38;8.30;;;;;;;32.54;45.15;95580.47;5015157;28;20199;-87
2021/08/15 09:56:58;;;;;;;10.40;8.50;;;;;;;32.61;45.36;95575.44;5010825;28;20231;-87
2021/08/15 09:59:32;;;;;;;9.05;8.15;;;;;;;32.69;45.22;95576.53;5010608;28;20577;-88
2021/08/15 10:01:59;;;;;;;10.70;8.52;;;;;;;32.85;43.52;95574.16;5011192;28;20238;-88
2021/08/15 10:04:26;;;;;;;13.52;8.93;;;;;;;32.86;44.33;95568.50;5011220;28;20199;-86
2021/08/15 10:06:55;;;;;;;8.65;7.75;;;;;;;32.91;43.47;95567.53;5010608;28;20230;-87
2021/08/15 10:09:22;;;;;;;12.88;8.70;;;;;;;32.74;43.54;95557.69;5018154;28;20221;-87
2021/08/15 10:11:51;;;;;;;12.68;8.23;;;;;;;32.52;44.20;95563.25;5031099;28;20755;-86
2021/08/15 10:14:18;;;;;;;15.93;14.27;;;;;;;32.74;44.67;95563.03;5031189;28;20221;-87
2021/08/15 10:16:49;;;;;;;10.55;9.07;;;;;;;32.77;43.40;95557.06;5030457;28;20225;-86
2021/08/15 10:19:45;;;;;;;11.82;8.27;;;;;;;32.87;43.51;95555.97;5012751;28;20288;-85
2021/08/15 10:22:19;;;;;;;9.75;8.40;;;;;;;33.10;44.44;95554.59;4955917;28;20228;-87
2021/08/15 10:24:53;;;;;;;9.30;8.40;;;;;;;33.35;43.98;95552.94;4990599;28;20210;-87
2021/08/15 10:27:49;;;;;;;11.13;8.07;;;;;;;33.46;43.67;95548.03;4991279;28;20232;-88
2021/08/15 10:30:45;;;;;;;14.32;8.93;;;;;;;33.40;43.63;95546.66;4991773;28;20558;-88
2021/08/15 10:33:20;;;;;;;10.40;8.15;;;;;;;33.38;43.53;95546.19;4991375;28;20303;-87
2021/08/15 10:36:26;;;;;;;9.55;7.90;;;;;;;33.17;42.55;95535.41;4990327;28;20202;-86
2021/08/15 10:38:57;;;;;;;8.98;8.07;;;;;;;33.19;43.66;95531.34;4990299;28;20704;-87
2021/08/15 10:41:52;;;;;;;11.73;7.97;;;;;;;33.34;43.24;95529.25;4991206;28;20227;-87
2021/08/15 10:44:20;;;;;;;11.02;8.45;;;;;;;33.05;43.83;95519.31;4991151;28;20207;-87
2021/08/15 10:47:10;;;;;;;13.30;8.38;;;;;;;32.97;44.49;95517.47;5011185;28;20297;-86
2021/08/15 10:49:48;;;;;;;10.10;8.30;;;;;;;32.82;43.17;95508.91;5010734;28;20679;-87
2021/08/15 10:52:37;;;;;;;9.18;7.80;;;;;;;32.79;43.72;95512.19;5009907;28;20235;-88
2021/08/15 10:55:07;;;;;;;9.60;8.45;;;;;;;32.95;44.45;95512.44;5029501;28;20264;-87
2021/08/15 10:57:42;;;;;;;8.65;7.45;;;;;;;33.00;44.29;95503.47;5030357;28;20226;-86
2021/08/15 11:00:43;;;;;;;10.68;8.13;;;;;;;32.98;45.21;95506.47;5030890;28;20688;-86
2021/08/15 11:03:38;;;;;;;10.10;8.18;;;;;;;32.61;43.94;95495.44;5026135;28;20208;-88
2021/08/15 11:06:06;;;;;;;10.68;7.93;;;;;;;32.65;45.25;95486.81;5029213;28;20748;-86
2021/08/15 11:08:57;;;;;;;11.95;7.60;;;;;;;32.65;44.26;95482.25;5028961;28;20205;-86
2021/08/15 11:11:30;;;;;;;8.93;7.90;;;;;;;32.67;44.78;95480.06;5009356;28;20315;-87
2021/08/15 11:14:24;;;;;;;11.35;7.95;;;;;;;32.55;45.58;95486.03;5009798;28;20274;-87
2021/08/15 11:16:52;;;;;;;8.90;7.88;;;;;;;32.43;45.44;95482.47;5004246;28;20237;-87
2021/08/15 11:19:30;;;;;;;10.07;7.63;;;;;;;32.34;46.30;95481.72;5009580;28;20195;-87
2021/08/15 11:22:06;;;;;;;11.85;7.72;;;;;;;32.28;45.46;95481.13;5011490;28;20317;-87
2021/08/15 11:24:39;;;;;;;9.85;8.30;;;;;;;32.25;45.59;95474.53;4989097;28;20697;-88
2021/08/15 11:27:06;;;;;;;20.65;10.07;;;;;;;32.33;46.63;95470.25;4989687;28;20261;-84
2021/08/15 11:29:33;;;;;;;17.80;10.18;;;;;;;32.28;45.51;95473.13;4993491;28;20200;-88
2021/08/15 11:32:00;;;;;;;10.65;9.48;;;;;;;32.22;45.63;95464.50;4994426;28;20223;-84
2021/08/15 11:34:28;;;;;;;13.20;8.75;;;;;;;32.21;46.78;95460.25;5026997;28;20198;-84
2021/08/15 11:36:56;;;;;;;13.88;9.25;;;;;;;32.11;47.14;95462.47;5034648;28;20202;-84
2021/08/15 11:39:29;;;;;;;13.80;8.80;;;;;;;32.09;46.36;95457.44;5035356;28;20724;-84
2021/08/15 11:41:58;;;;;;;11.45;8.80;;;;;;;32.22;46.38;95459.16;5034229;28;20229;-83
2021/08/15 11:44:24;;;;;;;10.40;7.47;;;;;;;32.33;46.08;95448.19;5033428;28;20205;-85
2021/08/15 11:46:52;;;;;;;10.30;8.45;;;;;;;32.59;45.99;95446.97;5013800;28;20199;-84
2021/08/15 11:49:32;;;;;;;11.10;8.00;;;;;;;32.76;45.11;95443.47;5015068;28;20208;-84
2021/08/15 11:52:17;;;;;;;11.60;8.15;;;;;;;33.01;44.83;95441.78;5014180;28;20248;-83
2021/08/15 11:54:43;;;;;;;12.02;8.32;;;;;;;33.14;44.60;95445.31;5014659;28;20586;-84
2021/08/15 11:57:13;;;;;;;9.90;7.50;;;;;;;33.21;44.00;95440.25;5014797;28;20214;-85
2021/08/15 11:59:40;;;;;;;12.80;8.20;;;;;;;33.19;43.23;95439.81;5015732;28;20202;-85
2021/08/15 12:02:13;;;;;;;9.48;7.80;;;;;;;33.13;43.95;95430.41;5017336;28;20219;-84
2021/08/15 12:04:40;;;;;;;11.02;7.93;;;;;;;33.21;42.69;95430.38;5014239;28;20214;-85
2021/08/15 12:07:06;;;;;;;12.07;8.02;;;;;;;32.97;43.75;95430.19;5015913;28;20233;-86
2021/08/15 12:09:33;;;;;;;10.45;7.90;;;;;;;32.70;43.29;95427.97;5020189;28;20205;-86
2021/08/15 12:12:04;;;;;;;11.38;7.63;;;;;;;32.67;42.94;95423.28;5021157;28;20223;-86
2021/08/15 12:15:05;;;;;;;11.07;7.70;;;;;;;32.72;42.79;95425.75;5016085;28;20203;-83
2021/08/15 12:21:30;;;;;;;11.25;7.70;;;;;;;32.98;42.59;95418.44;5021132;28;20210;-84
2021/08/15 12:24:00;;;;;;;8.32;7.50;;;;;;;33.03;41.22;95406.78;5021958;28;20209;-83
2021/08/15 12:26:28;;;;;;;11.27;8.77;;;;;;;33.22;42.13;95402.56;5016297;28;20214;-84
2021/08/15 12:28:56;;;;;;;9.05;7.28;;;;;;;33.26;41.98;95406.19;5015773;28;20195;-83
2021/08/15 12:31:26;;;;;;;8.57;7.13;;;;;;;33.35;41.80;95400.00;5013595;28;20215;-84
2021/08/15 12:34:04;;;;;;;10.15;7.75;;;;;;;33.45;41.58;95392.38;5013130;28;20232;-83
2021/08/15 12:36:41;;;;;;;13.88;8.48;;;;;;;33.63;41.72;95387.69;5013575;28;20202;-83
2021/08/15 12:39:07;;;;;;;9.90;7.80;;;;;;;33.77;42.40;95390.06;5014098;28;20234;-84
2021/08/15 12:41:52;;;;;;;10.98;7.30;;;;;;;33.89;40.87;95382.88;5013543;28;20706;-84
2021/08/15 12:44:22;;;;;;;12.68;7.28;;;;;;;34.00;40.75;95382.47;5014550;28;20565;-80
2021/08/15 12:47:06;;;;;;;8.18;6.93;;;;;;;34.05;40.98;95383.06;5013928;28;20207;-84
2021/08/15 12:49:38;;;;;;;9.88;7.05;;;;;;;34.15;41.30;95389.84;5014208;28;20191;-84
2021/08/15 12:52:17;;;;;;;13.90;7.40;;;;;;;34.22;39.66;95387.44;5014424;28;20958;-83
2021/08/15 12:55:22;;;;;;;11.70;7.55;;;;;;;34.12;39.82;95387.84;5013848;28;20194;-82
2021/08/15 12:57:52;;;;;;;8.88;7.55;;;;;;;34.23;39.41;95386.31;5014811;28;20226;-84
2021/08/15 13:00:20;;;;;;;8.88;7.00;;;;;;;34.29;40.21;95379.66;5013730;28;20191;-83
2021/08/15 13:02:50;;;;;;;9.88;7.15;;;;;;;34.23;40.17;95381.75;5016205;28;20653;-85
2021/08/15 13:05:18;;;;;;;8.18;7.35;;;;;;;34.05;39.23;95372.38;5016352;28;20203;-85
2021/08/15 13:07:46;;;;;;;8.52;7.00;;;;;;;33.99;38.94;95368.34;5015510;28;20203;-83
2021/08/15 13:10:13;;;;;;;9.90;7.15;;;;;;;33.94;39.55;95363.19;5015960;28;20205;-85
2021/08/15 13:12:40;;;;;;;10.85;7.50;;;;;;;34.03;39.64;95358.56;5017080;28;20317;-85
2021/08/15 13:15:09;;;;;;;14.85;7.75;;;;;;;34.16;39.39;95356.66;5017200;28;20203;-84
2021/08/15 13:17:36;;;;;;;9.15;7.43;;;;;;;34.17;37.71;95348.31;5017118;28;20203;-86
2021/08/15 13:20:05;;;;;;;10.02;6.97;;;;;;;34.09;38.49;95351.88;5017226;28;20689;-85
2021/08/15 13:22:32;;;;;;;10.75;7.43;;;;;;;33.94;40.35;95349.84;5016466;28;20227;-85
2021/08/15 13:24:59;;;;;;;11.00;6.93;;;;;;;33.87;40.61;95339.69;5014925;28;20203;-81